sensor_id;sensor_type;location;lat;lon;timestamp;pressure;altitude;pressure_sealevel;temperature;humidity
51083;BME280;37131;42.694;23.350;2023-01-15T00:01:04;95915.16;;;4.65;80.63
51083;BME280;37131;42.694;23.350;2023-01-15T00:03:30;95927.97;;;4.82;80.50
51083;BME280;37131;42.694;23.350;2023-01-15T00:06:01;95929.66;;;4.66;81.20
51083;BME280;37131;42.694;23.350;2023-01-15T00:08:27;95929.66;;;4.66;81.12
51083;BME280;37131;42.694;23.350;2023-01-15T00:10:52;95924.72;;;4.56;82.89
51083;BME280;37131;42.694;23.350;2023-01-15T00:13:18;95923.78;;;4.81;81.39
51083;BME280;37131;42.694;23.350;2023-01-15T00:15:43;95920.56;;;4.79;80.11
51083;BME280;37131;42.694;23.350;2023-01-15T00:18:09;95920.66;;;4.62;81.09
51083;BME280;37131;42.694;23.350;2023-01-15T00:20:34;95912.69;;;4.72;80.17
51083;BME280;37131;42.694;23.350;2023-01-15T00:23:00;95918.78;;;4.48;81.39
51083;BME280;37131;42.694;23.350;2023-01-15T00:25:25;95923.09;;;4.55;82.05
51083;BME280;37131;42.694;23.350;2023-01-15T00:28:12;95932.41;;;4.33;83.70
51083;BME280;37131;42.694;23.350;2023-01-15T00:30:41;95933.06;;;4.27;84.03
51083;BME280;37131;42.694;23.350;2023-01-15T00:33:08;95928.81;;;4.43;82.46
51083;BME280;37131;42.694;23.350;2023-01-15T00:35:34;95937.88;;;4.38;82.36
51083;BME280;37131;42.694;23.350;2023-01-15T00:37:59;95888.16;;;4.05;83.61
51083;BME280;37131;42.694;23.350;2023-01-15T00:40:25;95871.19;;;4.11;83.13
51083;BME280;37131;42.694;23.350;2023-01-15T00:42:50;95923.81;;;4.41;82.78
51083;BME280;37131;42.694;23.350;2023-01-15T00:45:16;95928.41;;;4.22;82.89
51083;BME280;37131;42.694;23.350;2023-01-15T00:47:42;95923.75;;;4.18;82.54
51083;BME280;37131;42.694;23.350;2023-01-15T00:50:13;95918.56;;;4.26;82.61
51083;BME280;37131;42.694;23.350;2023-01-15T00:52:40;95914.06;;;4.51;81.27
51083;BME280;37131;42.694;23.350;2023-01-15T00:55:07;95906.97;;;4.85;80.75
51083;BME280;37131;42.694;23.350;2023-01-15T00:57:33;95888.34;;;4.35;79.71
51083;BME280;37131;42.694;23.350;2023-01-15T00:59:59;95915.13;;;4.34;81.24
51083;BME280;37131;42.694;23.350;2023-01-15T01:02:24;95916.97;;;4.56;80.92
51083;BME280;37131;42.694;23.350;2023-01-15T01:04:50;95922.41;;;4.62;80.98
51083;BME280;37131;42.694;23.350;2023-01-15T01:07:15;95862.53;;;4.35;80.05
51083;BME280;37131;42.694;23.350;2023-01-15T01:09:41;95909.81;;;4.67;80.22
51083;BME280;37131;42.694;23.350;2023-01-15T01:12:06;95910.44;;;4.69;80.09
51083;BME280;37131;42.694;23.350;2023-01-15T01:14:32;95915.06;;;4.82;79.56
51083;BME280;37131;42.694;23.350;2023-01-15T01:16:58;95913.75;;;4.86;79.79
51083;BME280;37131;42.694;23.350;2023-01-15T01:19:25;95909.94;;;4.97;78.99
51083;BME280;37131;42.694;23.350;2023-01-15T01:21:51;95909.47;;;4.93;79.35
51083;BME280;37131;42.694;23.350;2023-01-15T01:24:18;95909.41;;;4.78;79.36
51083;BME280;37131;42.694;23.350;2023-01-15T01:26:44;95911.38;;;4.76;79.64
51083;BME280;37131;42.694;23.350;2023-01-15T01:29:15;95907.75;;;4.85;79.60
51083;BME280;37131;42.694;23.350;2023-01-15T01:31:41;95905.78;;;5.10;78.59
51083;BME280;37131;42.694;23.350;2023-01-15T01:34:08;95908.84;;;4.91;78.56
51083;BME280;37131;42.694;23.350;2023-01-15T01:36:36;95908.56;;;4.86;78.70
51083;BME280;37131;42.694;23.350;2023-01-15T01:39:03;95900.53;;;5.04;77.23
51083;BME280;37131;42.694;23.350;2023-01-15T01:41:29;95901.31;;;4.58;79.94
51083;BME280;37131;42.694;23.350;2023-01-15T01:44:04;95912.50;;;4.73;78.84
51083;BME280;37131;42.694;23.350;2023-01-15T01:46:32;95907.06;;;4.91;78.25
51083;BME280;37131;42.694;23.350;2023-01-15T01:49:05;95906.22;;;4.45;80.27
51083;BME280;37131;42.694;23.350;2023-01-15T01:51:36;95913.91;;;4.53;80.71
51083;BME280;37131;42.694;23.350;2023-01-15T01:54:04;95853.47;;;4.39;79.73
51083;BME280;37131;42.694;23.350;2023-01-15T01:56:33;95903.16;;;4.72;79.08
51083;BME280;37131;42.694;23.350;2023-01-15T01:58:59;95891.00;;;4.50;80.26
51083;BME280;37131;42.694;23.350;2023-01-15T02:01:24;95903.16;;;4.72;79.37
51083;BME280;37131;42.694;23.350;2023-01-15T02:03:51;95904.78;;;4.42;80.04
51083;BME280;37131;42.694;23.350;2023-01-15T02:06:17;95901.13;;;4.60;80.10
51083;BME280;37131;42.694;23.350;2023-01-15T02:08:43;95891.91;;;4.65;79.03
51083;BME280;37131;42.694;23.350;2023-01-15T02:11:15;95895.03;;;4.52;79.34
51083;BME280;37131;42.694;23.350;2023-01-15T02:13:49;95897.16;;;4.49;80.03
51083;BME280;37131;42.694;23.350;2023-01-15T02:16:24;95891.19;;;4.48;78.72
51083;BME280;37131;42.694;23.350;2023-01-15T02:18:59;95884.75;;;4.44;79.16
51083;BME280;37131;42.694;23.350;2023-01-15T02:21:52;95886.25;;;4.38;79.88
51083;BME280;37131;42.694;23.350;2023-01-15T02:27:16;95894.88;;;4.22;79.59
51083;BME280;37131;42.694;23.350;2023-01-15T02:35:00;95891.25;;;4.63;76.88
51083;BME280;37131;42.694;23.350;2023-01-15T02:37:29;95884.56;;;4.46;78.08
51083;BME280;37131;42.694;23.350;2023-01-15T02:39:58;95887.66;;;4.72;77.50
51083;BME280;37131;42.694;23.350;2023-01-15T02:42:27;95879.97;;;4.87;76.80
51083;BME280;37131;42.694;23.350;2023-01-15T02:44:57;95880.41;;;4.91;75.98
51083;BME280;37131;42.694;23.350;2023-01-15T02:47:28;95888.41;;;4.81;76.77
51083;BME280;37131;42.694;23.350;2023-01-15T02:49:56;95873.88;;;4.80;75.64
51083;BME280;37131;42.694;23.350;2023-01-15T02:52:29;95874.38;;;4.52;77.00
51083;BME280;37131;42.694;23.350;2023-01-15T02:55:09;95884.47;;;4.39;77.51
51083;BME280;37131;42.694;23.350;2023-01-15T02:57:37;95881.75;;;4.64;76.39
51083;BME280;37131;42.694;23.350;2023-01-15T03:00:08;95876.44;;;4.57;77.05
51083;BME280;37131;42.694;23.350;2023-01-15T03:02:43;95885.41;;;4.38;78.71
51083;BME280;37131;42.694;23.350;2023-01-15T03:05:10;95885.50;;;4.53;77.54
51083;BME280;37131;42.694;23.350;2023-01-15T03:07:44;95889.41;;;4.49;77.34
51083;BME280;37131;42.694;23.350;2023-01-15T03:10:10;95888.19;;;4.36;77.27
51083;BME280;37131;42.694;23.350;2023-01-15T03:12:46;95898.81;;;4.42;77.84
51083;BME280;37131;42.694;23.350;2023-01-15T03:18:29;95872.16;;;4.41;77.27
51083;BME280;37131;42.694;23.350;2023-01-15T03:20:59;95880.38;;;4.13;78.10
51083;BME280;37131;42.694;23.350;2023-01-15T03:23:29;95899.41;;;4.52;77.25
51083;BME280;37131;42.694;23.350;2023-01-15T03:25:55;95884.28;;;4.09;78.15
51083;BME280;37131;42.694;23.350;2023-01-15T03:28:24;95893.13;;;4.46;77.37
51083;BME280;37131;42.694;23.350;2023-01-15T03:30:50;95884.53;;;4.54;77.67
51083;BME280;37131;42.694;23.350;2023-01-15T03:33:16;95889.31;;;4.34;78.49
51083;BME280;37131;42.694;23.350;2023-01-15T03:35:51;95889.44;;;4.41;78.97
51083;BME280;37131;42.694;23.350;2023-01-15T03:38:20;95891.34;;;4.47;78.22
51083;BME280;37131;42.694;23.350;2023-01-15T03:46:58;95904.16;;;4.32;79.86
51083;BME280;37131;42.694;23.350;2023-01-15T03:55:10;95910.88;;;4.10;81.36
51083;BME280;37131;42.694;23.350;2023-01-15T04:00:12;95879.19;;;4.55;78.54
51083;BME280;37131;42.694;23.350;2023-01-15T04:02:39;95879.66;;;4.28;79.22
51083;BME280;37131;42.694;23.350;2023-01-15T04:05:05;95901.25;;;3.95;81.41
51083;BME280;37131;42.694;23.350;2023-01-15T04:07:31;95882.47;;;4.18;80.46
51083;BME280;37131;42.694;23.350;2023-01-15T04:09:57;95883.25;;;4.27;80.62
51083;BME280;37131;42.694;23.350;2023-01-15T04:12:23;95895.25;;;4.03;80.83
51083;BME280;37131;42.694;23.350;2023-01-15T04:14:48;95893.66;;;3.94;81.38
51083;BME280;37131;42.694;23.350;2023-01-15T04:17:13;95888.34;;;3.95;81.87
51083;BME280;37131;42.694;23.350;2023-01-15T04:19:39;95853.25;;;3.78;80.94
51083;BME280;37131;42.694;23.350;2023-01-15T04:22:05;95890.03;;;4.19;80.05
51083;BME280;37131;42.694;23.350;2023-01-15T04:24:30;95892.25;;;3.83;81.69
51083;BME280;37131;42.694;23.350;2023-01-15T04:26:56;95890.22;;;4.10;81.48
51083;BME280;37131;42.694;23.350;2023-01-15T04:29:21;95889.00;;;3.97;81.14
51083;BME280;37131;42.694;23.350;2023-01-15T04:31:46;95895.38;;;4.18;79.91
51083;BME280;37131;42.694;23.350;2023-01-15T04:34:12;95886.44;;;3.89;80.87
51083;BME280;37131;42.694;23.350;2023-01-15T04:36:37;95887.53;;;3.95;82.36
51083;BME280;37131;42.694;23.350;2023-01-15T04:39:04;95902.47;;;4.16;81.38
51083;BME280;37131;42.694;23.350;2023-01-15T04:41:30;95900.03;;;4.22;81.67
51083;BME280;37131;42.694;23.350;2023-01-15T04:44:14;95901.06;;;4.05;81.92
51083;BME280;37131;42.694;23.350;2023-01-15T04:46:41;95904.47;;;3.97;82.23
51083;BME280;37131;42.694;23.350;2023-01-15T04:49:13;95900.03;;;4.14;81.53
51083;BME280;37131;42.694;23.350;2023-01-15T04:51:39;95902.53;;;3.91;81.96
51083;BME280;37131;42.694;23.350;2023-01-15T04:54:06;95905.53;;;4.11;81.43
51083;BME280;37131;42.694;23.350;2023-01-15T04:56:37;95908.97;;;3.95;81.96
51083;BME280;37131;42.694;23.350;2023-01-15T04:59:03;95905.91;;;4.00;82.24
51083;BME280;37131;42.694;23.350;2023-01-15T05:01:28;95911.09;;;3.92;82.58
51083;BME280;37131;42.694;23.350;2023-01-15T05:03:54;95911.72;;;4.02;82.19
51083;BME280;37131;42.694;23.350;2023-01-15T05:06:19;95910.13;;;3.93;82.15
51083;BME280;37131;42.694;23.350;2023-01-15T05:08:45;95906.81;;;4.15;81.79
51083;BME280;37131;42.694;23.350;2023-01-15T05:11:10;95908.31;;;4.01;82.18
51083;BME280;37131;42.694;23.350;2023-01-15T05:13:36;95911.88;;;4.00;83.03
51083;BME280;37131;42.694;23.350;2023-01-15T05:16:13;95914.75;;;4.14;82.30
51083;BME280;37131;42.694;23.350;2023-01-15T05:18:40;95905.81;;;3.77;83.82
51083;BME280;37131;42.694;23.350;2023-01-15T05:21:12;95890.13;;;3.86;81.95
51083;BME280;37131;42.694;23.350;2023-01-15T05:23:38;95906.88;;;3.99;79.65
51083;BME280;37131;42.694;23.350;2023-01-15T05:26:03;95902.91;;;4.28;78.49
51083;BME280;37131;42.694;23.350;2023-01-15T05:28:29;95905.91;;;4.39;77.19
51083;BME280;37131;42.694;23.350;2023-01-15T05:30:54;95914.28;;;4.02;77.34
51083;BME280;37131;42.694;23.350;2023-01-15T05:33:20;95914.28;;;4.02;78.94
51083;BME280;37131;42.694;23.350;2023-01-15T05:35:45;95909.34;;;4.32;77.80
51083;BME280;37131;42.694;23.350;2023-01-15T05:38:10;95899.28;;;4.37;76.83
51083;BME280;37131;42.694;23.350;2023-01-15T05:40:36;95904.03;;;4.25;76.33
51083;BME280;37131;42.694;23.350;2023-01-15T05:43:01;95906.69;;;4.09;77.95
51083;BME280;37131;42.694;23.350;2023-01-15T05:45:27;95909.88;;;4.19;76.08
51083;BME280;37131;42.694;23.350;2023-01-15T05:47:52;95907.63;;;4.16;76.02
51083;BME280;37131;42.694;23.350;2023-01-15T05:50:18;95909.63;;;4.37;75.48
51083;BME280;37131;42.694;23.350;2023-01-15T05:52:43;95922.59;;;4.29;76.21
51083;BME280;37131;42.694;23.350;2023-01-15T05:55:08;95920.44;;;4.41;75.52
51083;BME280;37131;42.694;23.350;2023-01-15T05:57:34;95914.00;;;4.36;75.11
51083;BME280;37131;42.694;23.350;2023-01-15T05:59:59;95907.41;;;4.65;73.11
51083;BME280;37131;42.694;23.350;2023-01-15T06:02:24;95913.91;;;4.53;73.84
51083;BME280;37131;42.694;23.350;2023-01-15T06:04:50;95907.94;;;4.52;74.46
51083;BME280;37131;42.694;23.350;2023-01-15T06:07:15;95927.91;;;4.27;75.27
51083;BME280;37131;42.694;23.350;2023-01-15T06:09:42;95915.00;;;4.27;76.26
51083;BME280;37131;42.694;23.350;2023-01-15T06:12:08;95906.66;;;4.48;74.96
51083;BME280;37131;42.694;23.350;2023-01-15T06:14:33;95913.09;;;4.61;74.08
51083;BME280;37131;42.694;23.350;2023-01-15T06:16:59;95908.00;;;4.76;73.02
51083;BME280;37131;42.694;23.350;2023-01-15T06:19:24;95916.88;;;4.73;72.88
51083;BME280;37131;42.694;23.350;2023-01-15T06:21:49;95908.06;;;4.59;73.90
51083;BME280;37131;42.694;23.350;2023-01-15T06:24:15;95915.81;;;4.59;73.26
51083;BME280;37131;42.694;23.350;2023-01-15T06:26:42;95902.47;;;4.79;72.64
51083;BME280;37131;42.694;23.350;2023-01-15T06:29:07;95903.66;;;4.68;72.74
51083;BME280;37131;42.694;23.350;2023-01-15T06:31:33;95902.00;;;4.52;74.36
51083;BME280;37131;42.694;23.350;2023-01-15T06:33:58;95902.25;;;4.65;73.78
51083;BME280;37131;42.694;23.350;2023-01-15T06:36:25;95901.66;;;4.55;73.66
51083;BME280;37131;42.694;23.350;2023-01-15T06:38:51;95901.75;;;4.30;76.10
51083;BME280;37131;42.694;23.350;2023-01-15T06:41:21;95901.22;;;4.43;73.22
51083;BME280;37131;42.694;23.350;2023-01-15T06:44:20;95913.19;;;4.36;73.42
51083;BME280;37131;42.694;23.350;2023-01-15T06:47:15;95865.00;;;4.28;72.61
51083;BME280;37131;42.694;23.350;2023-01-15T06:49:54;95913.38;;;4.34;74.79
51083;BME280;37131;42.694;23.350;2023-01-15T06:52:23;95915.28;;;4.41;76.21
51083;BME280;37131;42.694;23.350;2023-01-15T06:54:49;95888.81;;;4.38;77.05
51083;BME280;37131;42.694;23.350;2023-01-15T06:57:14;95908.63;;;4.46;77.85
51083;BME280;37131;42.694;23.350;2023-01-15T06:59:40;95913.16;;;4.04;78.76
51083;BME280;37131;42.694;23.350;2023-01-15T07:02:05;95916.47;;;4.30;78.92
51083;BME280;37131;42.694;23.350;2023-01-15T07:04:31;95914.03;;;4.28;78.80
51083;BME280;37131;42.694;23.350;2023-01-15T07:06:56;95916.31;;;3.75;80.40
51083;BME280;37131;42.694;23.350;2023-01-15T07:09:22;95906.72;;;3.92;80.66
51083;BME280;37131;42.694;23.350;2023-01-15T07:11:47;95921.09;;;3.95;79.93
51083;BME280;37131;42.694;23.350;2023-01-15T07:14:20;95926.81;;;3.41;84.33
51083;BME280;37131;42.694;23.350;2023-01-15T07:16:46;95918.41;;;3.63;85.89
51083;BME280;37131;42.694;23.350;2023-01-15T07:19:12;95915.13;;;3.86;85.46
51083;BME280;37131;42.694;23.350;2023-01-15T07:21:37;95923.44;;;3.40;86.78
51083;BME280;37131;42.694;23.350;2023-01-15T07:24:03;95911.81;;;3.53;88.05
51083;BME280;37131;42.694;23.350;2023-01-15T07:26:29;95924.84;;;3.84;86.84
51083;BME280;37131;42.694;23.350;2023-01-15T07:28:54;95922.50;;;4.06;85.25
51083;BME280;37131;42.694;23.350;2023-01-15T07:31:20;95919.97;;;3.97;84.74
51083;BME280;37131;42.694;23.350;2023-01-15T07:33:45;95929.75;;;4.50;82.38
51083;BME280;37131;42.694;23.350;2023-01-15T07:36:11;95925.66;;;4.24;81.82
51083;BME280;37131;42.694;23.350;2023-01-15T07:38:36;95924.81;;;4.71;80.31
51083;BME280;37131;42.694;23.350;2023-01-15T07:41:01;95928.69;;;4.67;79.98
51083;BME280;37131;42.694;23.350;2023-01-15T07:43:46;95934.97;;;4.33;79.34
51083;BME280;37131;42.694;23.350;2023-01-15T07:46:30;95929.53;;;4.28;79.99
51083;BME280;37131;42.694;23.350;2023-01-15T07:49:14;95927.59;;;4.22;80.99
51083;BME280;37131;42.694;23.350;2023-01-15T07:52:09;95925.53;;;4.17;79.72
51083;BME280;37131;42.694;23.350;2023-01-15T07:54:34;95884.91;;;4.03;80.99
51083;BME280;37131;42.694;23.350;2023-01-15T07:56:59;95917.97;;;4.47;80.82
51083;BME280;37131;42.694;23.350;2023-01-15T07:59:25;95910.13;;;4.32;79.76
51083;BME280;37131;42.694;23.350;2023-01-15T08:01:50;95918.66;;;4.41;79.78
51083;BME280;37131;42.694;23.350;2023-01-15T08:04:16;95882.22;;;4.59;77.93
51083;BME280;37131;42.694;23.350;2023-01-15T08:06:41;95912.25;;;4.60;77.53
51083;BME280;37131;42.694;23.350;2023-01-15T08:09:06;95912.06;;;4.38;78.71
51083;BME280;37131;42.694;23.350;2023-01-15T08:11:32;95912.50;;;4.73;77.91
51083;BME280;37131;42.694;23.350;2023-01-15T08:14:16;95916.53;;;4.76;77.37
51083;BME280;37131;42.694;23.350;2023-01-15T08:17:00;95915.53;;;4.54;77.18
51083;BME280;37131;42.694;23.350;2023-01-15T08:19:25;95887.88;;;4.31;77.34
51083;BME280;37131;42.694;23.350;2023-01-15T08:21:54;95922.47;;;4.85;76.52
51083;BME280;37131;42.694;23.350;2023-01-15T08:24:19;95931.19;;;5.07;74.90
51083;BME280;37131;42.694;23.350;2023-01-15T08:26:45;95927.75;;;5.15;72.83
51083;BME280;37131;42.694;23.350;2023-01-15T08:29:10;95919.69;;;4.86;73.76
51083;BME280;37131;42.694;23.350;2023-01-15T08:31:35;95920.91;;;4.76;74.88
51083;BME280;37131;42.694;23.350;2023-01-15T08:34:01;95937.88;;;4.70;74.74
51083;BME280;37131;42.694;23.350;2023-01-15T08:36:27;95941.25;;;4.70;76.34
51083;BME280;37131;42.694;23.350;2023-01-15T08:38:52;95930.50;;;4.59;76.16
51083;BME280;37131;42.694;23.350;2023-01-15T08:41:17;95925.50;;;5.12;73.96
51083;BME280;37131;42.694;23.350;2023-01-15T08:43:43;95931.81;;;5.09;74.25
51083;BME280;37131;42.694;23.350;2023-01-15T08:46:10;95926.25;;;5.43;74.69
51083;BME280;37131;42.694;23.350;2023-01-15T08:48:36;95930.63;;;5.58;73.46
51083;BME280;37131;42.694;23.350;2023-01-15T08:51:06;95928.13;;;5.03;74.37
51083;BME280;37131;42.694;23.350;2023-01-15T08:53:32;95929.03;;;4.64;75.41
51083;BME280;37131;42.694;23.350;2023-01-15T08:55:57;95877.91;;;4.83;74.30
51083;BME280;37131;42.694;23.350;2023-01-15T08:58:23;95920.00;;;5.53;72.48
51083;BME280;37131;42.694;23.350;2023-01-15T09:00:48;95922.75;;;5.36;73.20
51083;BME280;37131;42.694;23.350;2023-01-15T09:03:14;95922.44;;;5.31;74.13
51083;BME280;37131;42.694;23.350;2023-01-15T09:05:40;95927.16;;;5.04;74.19
51083;BME280;37131;42.694;23.350;2023-01-15T09:08:05;95926.53;;;4.79;75.98
51083;BME280;37131;42.694;23.350;2023-01-15T09:10:32;95912.66;;;5.41;75.24
51083;BME280;37131;42.694;23.350;2023-01-15T09:13:01;95920.78;;;5.38;74.90
51083;BME280;37131;42.694;23.350;2023-01-15T09:15:31;95921.41;;;5.40;74.57
51083;BME280;37131;42.694;23.350;2023-01-15T09:17:57;95918.53;;;5.12;76.45
51083;BME280;37131;42.694;23.350;2023-01-15T09:20:23;95912.00;;;5.01;75.42
51083;BME280;37131;42.694;23.350;2023-01-15T09:22:50;95908.50;;;5.40;74.92
51083;BME280;37131;42.694;23.350;2023-01-15T09:25:16;95914.41;;;5.64;73.99
51083;BME280;37131;42.694;23.350;2023-01-15T09:27:44;95902.06;;;5.13;75.17
51083;BME280;37131;42.694;23.350;2023-01-15T09:30:15;95907.41;;;5.35;75.36
51083;BME280;37131;42.694;23.350;2023-01-15T09:32:41;95894.09;;;5.61;73.82
51083;BME280;37131;42.694;23.350;2023-01-15T09:35:07;95899.19;;;5.46;73.85
51083;BME280;37131;42.694;23.350;2023-01-15T09:37:32;95895.34;;;5.27;73.10
51083;BME280;37131;42.694;23.350;2023-01-15T09:39:57;95874.34;;;4.84;74.89
51083;BME280;37131;42.694;23.350;2023-01-15T09:42:45;95885.88;;;4.73;76.62
51083;BME280;37131;42.694;23.350;2023-01-15T09:48:00;95881.22;;;4.91;75.54
51083;BME280;37131;42.694;23.350;2023-01-15T09:56:01;95867.13;;;5.40;74.78
51083;BME280;37131;42.694;23.350;2023-01-15T09:58:35;95858.19;;;5.43;72.53
51083;BME280;37131;42.694;23.350;2023-01-15T10:01:02;95853.81;;;5.43;73.17
51083;BME280;37131;42.694;23.350;2023-01-15T10:06:23;95847.34;;;5.09;73.76
51083;BME280;37131;42.694;23.350;2023-01-15T10:08:50;95838.13;;;4.92;73.51
51083;BME280;37131;42.694;23.350;2023-01-15T10:11:33;95771.19;;;4.59;73.54
51083;BME280;37131;42.694;23.350;2023-01-15T10:15:09;95823.31;;;4.86;73.38
51083;BME280;37131;42.694;23.350;2023-01-15T10:17:41;95821.25;;;5.49;71.13
51083;BME280;37131;42.694;23.350;2023-01-15T10:20:29;95814.41;;;5.86;70.35
51083;BME280;37131;42.694;23.350;2023-01-15T10:23:13;95812.91;;;6.28;68.48
51083;BME280;37131;42.694;23.350;2023-01-15T10:25:52;95795.78;;;6.49;68.39
51083;BME280;37131;42.694;23.350;2023-01-15T10:28:29;95803.63;;;6.77;67.60
51083;BME280;37131;42.694;23.350;2023-01-15T10:30:56;95805.56;;;5.95;68.02
51083;BME280;37131;42.694;23.350;2023-01-15T10:35:58;95793.84;;;6.51;65.75
51083;BME280;37131;42.694;23.350;2023-01-15T10:38:34;95782.59;;;6.44;67.86
51083;BME280;37131;42.694;23.350;2023-01-15T10:41:26;95778.66;;;5.60;71.65
51083;BME280;37131;42.694;23.350;2023-01-15T10:44:00;95778.47;;;6.28;70.69
51083;BME280;37131;42.694;23.350;2023-01-15T10:46:30;95767.59;;;6.61;68.96
51083;BME280;37131;42.694;23.350;2023-01-15T10:49:05;95752.66;;;7.13;67.44
51083;BME280;37131;42.694;23.350;2023-01-15T10:51:44;95760.19;;;7.36;67.00
51083;BME280;37131;42.694;23.350;2023-01-15T10:54:43;95741.66;;;7.11;67.45
51083;BME280;37131;42.694;23.350;2023-01-15T10:59:57;95739.66;;;6.78;68.80
51083;BME280;37131;42.694;23.350;2023-01-15T11:02:46;95743.22;;;6.77;67.99
51083;BME280;37131;42.694;23.350;2023-01-15T11:05:15;95727.09;;;7.10;67.23
51083;BME280;37131;42.694;23.350;2023-01-15T11:07:43;95738.56;;;6.94;66.92
51083;BME280;37131;42.694;23.350;2023-01-15T11:10:13;95736.44;;;6.76;67.09
51083;BME280;37131;42.694;23.350;2023-01-15T11:13:08;95729.59;;;6.96;66.46
51083;BME280;37131;42.694;23.350;2023-01-15T11:16:00;95730.03;;;7.00;66.05
51083;BME280;37131;42.694;23.350;2023-01-15T11:18:45;95718.19;;;6.91;65.78
51083;BME280;37131;42.694;23.350;2023-01-15T11:21:29;95715.94;;;6.81;65.03
51083;BME280;37131;42.694;23.350;2023-01-15T11:23:57;95707.00;;;7.18;64.42
51083;BME280;37131;42.694;23.350;2023-01-15T11:26:26;95707.22;;;7.65;63.29
51083;BME280;37131;42.694;23.350;2023-01-15T11:28:53;95699.53;;;7.85;61.78
51083;BME280;37131;42.694;23.350;2023-01-15T11:31:19;95699.53;;;7.85;62.65
51083;BME280;37131;42.694;23.350;2023-01-15T11:34:00;95687.41;;;7.44;63.84
51083;BME280;37131;42.694;23.350;2023-01-15T11:36:27;95682.94;;;7.38;64.39
51083;BME280;37131;42.694;23.350;2023-01-15T11:38:53;95691.41;;;7.53;63.67
51083;BME280;37131;42.694;23.350;2023-01-15T11:44:16;95673.94;;;6.64;66.04
51083;BME280;37131;42.694;23.350;2023-01-15T11:47:00;95674.44;;;7.09;66.52
51083;BME280;37131;42.694;23.350;2023-01-15T11:49:53;95661.16;;;7.26;65.05
51083;BME280;37131;42.694;23.350;2023-01-15T11:52:42;95672.88;;;6.80;68.19
51083;BME280;37131;42.694;23.350;2023-01-15T11:55:14;95658.25;;;7.00;67.83
51083;BME280;37131;42.694;23.350;2023-01-15T11:57:43;95655.28;;;7.52;65.30
51083;BME280;37131;42.694;23.350;2023-01-15T12:00:32;95659.59;;;7.38;64.97
51083;BME280;37131;42.694;23.350;2023-01-15T12:03:12;95660.91;;;7.62;65.32
51083;BME280;37131;42.694;23.350;2023-01-15T12:05:45;95649.72;;;7.62;65.19
51083;BME280;37131;42.694;23.350;2023-01-15T12:08:48;95654.59;;;7.98;63.04
51083;BME280;37131;42.694;23.350;2023-01-15T12:16:55;95649.22;;;7.38;65.60
51083;BME280;37131;42.694;23.350;2023-01-15T12:33:09;95630.41;;;7.84;63.78
51083;BME280;37131;42.694;23.350;2023-01-15T12:35:41;95625.63;;;7.81;63.54
51083;BME280;37131;42.694;23.350;2023-01-15T12:38:22;95622.03;;;8.02;63.06
51083;BME280;37131;42.694;23.350;2023-01-15T12:40:55;95624.41;;;7.77;62.66
51083;BME280;37131;42.694;23.350;2023-01-15T12:43:25;95622.06;;;8.09;62.17
51083;BME280;37131;42.694;23.350;2023-01-15T12:46:16;95607.16;;;7.49;64.46
51083;BME280;37131;42.694;23.350;2023-01-15T12:48:50;95615.03;;;7.83;64.53
51083;BME280;37131;42.694;23.350;2023-01-15T12:51:25;95613.88;;;8.19;63.85
51083;BME280;37131;42.694;23.350;2023-01-15T12:54:01;95613.88;;;8.39;61.51
51083;BME280;37131;42.694;23.350;2023-01-15T12:56:48;95601.13;;;9.61;57.79
51083;BME280;37131;42.694;23.350;2023-01-15T12:59:28;95595.31;;;10.23;55.18
51083;BME280;37131;42.694;23.350;2023-01-15T13:02:08;95581.69;;;10.90;53.24
51083;BME280;37131;42.694;23.350;2023-01-15T13:07:27;95565.69;;;9.92;54.76
51083;BME280;37131;42.694;23.350;2023-01-15T13:10:16;95592.22;;;10.08;53.88
51083;BME280;37131;42.694;23.350;2023-01-15T13:12:42;95592.22;;;9.37;54.96
51083;BME280;37131;42.694;23.350;2023-01-15T13:15:16;95581.34;;;9.08;56.29
51083;BME280;37131;42.694;23.350;2023-01-15T13:17:57;95597.69;;;8.64;57.66
51083;BME280;37131;42.694;23.350;2023-01-15T13:20:58;95593.50;;;8.22;60.37
51083;BME280;37131;42.694;23.350;2023-01-15T13:33:53;95565.50;;;7.84;61.47
51083;BME280;37131;42.694;23.350;2023-01-15T13:36:26;95579.44;;;6.95;66.06
51083;BME280;37131;42.694;23.350;2023-01-15T13:38:56;95557.72;;;6.96;65.18
51083;BME280;37131;42.694;23.350;2023-01-15T13:41:25;95565.94;;;7.13;66.38
51083;BME280;37131;42.694;23.350;2023-01-15T13:44:32;95568.03;;;7.37;65.27
51083;BME280;37131;42.694;23.350;2023-01-15T13:47:01;95561.34;;;7.08;65.28
51083;BME280;37131;42.694;23.350;2023-01-15T13:49:34;95563.81;;;7.36;64.38
51083;BME280;37131;42.694;23.350;2023-01-15T13:52:03;95561.81;;;7.32;64.52
51083;BME280;37131;42.694;23.350;2023-01-15T13:54:35;95563.03;;;7.36;64.44
51083;BME280;37131;42.694;23.350;2023-01-15T13:57:09;95571.41;;;7.38;63.95
51083;BME280;37131;42.694;23.350;2023-01-15T13:59:43;95568.44;;;7.41;64.20
51083;BME280;37131;42.694;23.350;2023-01-15T14:02:29;95564.25;;;7.40;64.67
51083;BME280;37131;42.694;23.350;2023-01-15T14:04:56;95549.56;;;6.99;65.52
51083;BME280;37131;42.694;23.350;2023-01-15T14:07:33;95560.50;;;6.94;65.57
51083;BME280;37131;42.694;23.350;2023-01-15T14:34:38;95557.03;;;7.29;64.25
51083;BME280;37131;42.694;23.350;2023-01-15T14:39:47;95554.69;;;6.92;65.12
51083;BME280;37131;42.694;23.350;2023-01-15T14:45:06;95550.81;;;6.68;66.44
51083;BME280;37131;42.694;23.350;2023-01-15T14:47:46;95552.59;;;6.67;66.25
51083;BME280;37131;42.694;23.350;2023-01-15T14:53:02;95557.53;;;6.56;68.05
51083;BME280;37131;42.694;23.350;2023-01-15T14:55:29;95553.66;;;6.45;67.91
51083;BME280;37131;42.694;23.350;2023-01-15T14:57:59;95558.44;;;6.41;69.36
51083;BME280;37131;42.694;23.350;2023-01-15T15:00:34;95551.66;;;6.40;68.99
51083;BME280;37131;42.694;23.350;2023-01-15T15:03:01;95552.59;;;6.67;68.28
51083;BME280;37131;42.694;23.350;2023-01-15T15:05:30;95560.84;;;6.14;70.74
51083;BME280;37131;42.694;23.350;2023-01-15T15:07:57;95562.56;;;5.86;71.73